Latest Weather Observations for Lord Howe Island

IDN60801

Issued at 5:22 pm EST Friday 1 July 2022 (issued every 10 minutes, with the page automatically refreshed every 10 minutes)

About weather observations | Map of weather stations | Latest weather observations for NSW | Other Formats
Station Details ID: 200839 Name: LORD HOWE ISLAND AERO Lat: -31.54 Lon: 159.08 Height: 5.0 m
Data from the previous 72 hours. | See also: Recent months at Lord Howe Island

Observations are collected in the New South Wales time zone (Eastern Standard Time) which includes daylight savings in the summer period. Therefore 'Rain since 9am' totals and other values are based on the New South Wales time zone, which may differ from local time.

Date/Time
EST
Temp
°C
App
Temp
°C
Dew
Point
°C
Rel
Hum
%
Delta-T
°C
Wind Press
QNH
hPa
Press
MSL
hPa
Rain since
9am
mm
Dir  Spd
km/h
Gust
km/h
Spd
kts
Gust
kts
01/05:00pm 16.3 17.4 13.4 83 1.6 CALM 0 0 0 0 1020.8 1020.7 0.0
01/04:30pm 16.8 17.9 13.5 81 1.9 CALM 0 0 0 0 1020.4 1020.3 0.0
01/04:00pm 17.7 18.9 13.8 78 2.2 CALM 0 0 0 0 1020.3 1020.2 0.0
01/03:30pm 18.4 19.5 13.5 73 2.8 CALM 0 0 0 0 1020.5 1020.4 0.0
01/03:00pm 18.8 19.0 13.2 70 3.2 SW 4 7 2 4 1020.5 1020.4 0.0
01/02:30pm 18.9 18.5 12.9 68 3.4 WSW 7 7 4 4 1020.4 1020.3 0.0
01/02:00pm 18.9 18.5 13.1 69 3.3 WSW 7 9 4 5 1020.6 1020.5 0.0
01/01:30pm 19.0 18.9 13.4 70 3.2 SW 6 7 3 4 1020.6 1020.5 0.0
01/01:00pm 18.8 18.4 13.0 69 3.3 WSW 7 11 4 6 1020.9 1020.8 0.0
01/12:30pm 18.9 18.8 13.3 70 3.2 SW 6 9 3 5 1020.8 1020.7 0.0
01/12:00pm 19.0 18.8 13.6 71 3.1 WSW 7 9 4 5 1021.3 1021.2 0.0
01/11:30am 19.1 18.5 13.5 70 3.2 WSW 9 11 5 6 1021.7 1021.6 0.0
01/11:00am 19.2 19.1 14.0 72 3.0 SW 7 11 4 6 1022.0 1021.9 0.0
01/10:30am 19.0 18.4 13.4 70 3.2 SW 9 13 5 7 1022.2 1022.1 0.0
01/10:00am 18.8 18.6 13.6 72 3.0 SW 7 13 4 7 1022.6 1022.5 0.0
01/09:30am 18.5 17.7 14.0 75 2.6 SW 11 17 6 9 1022.5 1022.4 0.0
01/09:00am 18.5 17.8 14.2 76 2.5 SW 11 19 6 10 1022.5 1022.4 0.0
01/08:30am 18.3 17.4 13.8 75 2.6 SW 11 20 6 11 1022.4 1022.3 0.0
01/08:00am 18.1 16.5 15.0 82 1.8 WSW 17 22 9 12 1022.2 1022.1 0.0
01/07:51am 18.0 15.8 14.9 82 1.8 WSW 20 24 11 13 1022.0 1021.9 0.0
01/07:30am 18.0 16.5 15.3 84 1.6 WSW 17 20 9 11 1021.8 1021.7 0.0
01/07:16am 17.9 16.3 15.0 83 1.7 WSW 17 19 9 10 1021.8 1021.7 0.0
01/07:14am 17.9 16.4 15.2 84 1.6 WSW 17 20 9 11 1021.7 1021.6 0.0
01/07:02am 17.9 16.8 15.2 84 1.6 WSW 15 20 8 11 1021.8 1021.7 0.0
01/07:00am 17.9 16.8 15.2 84 1.6 WSW 15 20 8 11 1021.9 1021.8 0.0
01/06:59am 17.9 16.8 15.2 84 1.6 WSW 15 20 8 11 1021.9 1021.8 0.0
01/06:30am 17.7 16.9 15.1 85 1.5 SW 13 19 7 10 1021.3 1021.2 0.0
01/06:23am 17.3 16.9 15.1 87 1.3 SSW 11 17 6 9 1021.4 1021.3 0.0
01/06:00am 17.2 16.6 14.5 84 1.5 SW 11 15 6 8 1021.4 1021.3 0.0
01/05:39am 17.5 15.4 14.8 84 1.6 WSW 19 30 10 16 1021.2 1021.1 0.0
01/05:30am 17.8 16.6 14.1 79 2.1 SW 13 20 7 11 1021.2 1021.1 0.0
01/05:02am 17.7 15.6 15.1 85 1.5 WSW 20 26 11 14 1021.1 1021.0 0.0
01/05:00am 17.6 15.3 14.7 83 1.7 WSW 20 26 11 14 1021.1 1021.0 0.0
01/04:30am 17.5 15.0 14.2 81 1.9 WSW 20 28 11 15 1021.0 1020.9 0.0
01/04:00am 17.4 15.6 14.5 83 1.7 WSW 17 22 9 12 1020.8 1020.7 0.0
01/03:30am 16.7 15.9 14.0 84 1.5 SW 11 17 6 9 1021.5 1021.4 0.0
01/03:00am 16.6 15.0 15.0 90 0.9 SW 17 22 9 12 1021.6 1021.5 0.0
01/02:37am 16.4 13.4 14.9 91 0.9 WSW 24 33 13 18 1021.5 1021.4 0.0
01/02:30am 16.6 12.9 15.1 91 0.9 WSW 28 41 15 22 1021.4 1021.3 0.0
01/02:26am 16.7 13.4 15.1 90 0.9 WSW 26 41 14 22 1021.4 1021.3 0.0
01/02:00am 17.3 16.7 14.6 84 1.5 NW 11 15 6 8 1021.4 1021.3 0.0
01/01:30am 17.5 17.2 13.4 77 2.3 WNW 7 15 4 8 1021.7 1021.6 0.0
01/01:00am 17.4 16.9 13.7 79 2.1 NW 9 17 5 9 1022.0 1021.9 0.0
01/12:30am 17.4 16.7 13.1 76 2.4 NNW 9 17 5 9 1022.1 1022.0 0.0
01/12:00am 17.1 16.7 13.0 77 2.3 NNW 7 13 4 7 1022.1 1022.0 0.0
 
Date/Time
EST
Temp
°C
App
Temp
°C
Dew
Point
°C
Rel
Hum
%
Delta-T
°C
Wind Press
QNH
hPa
Press
MSL
hPa
Rain since
9am
mm
Dir  Spd
km/h
Gust
km/h
Spd
kts
Gust
kts
30/11:30pm 17.3 16.9 13.0 76 2.4 NNW 7 13 4 7 1022.2 1022.1 0.0
30/11:00pm 17.4 17.0 13.1 76 2.4 N 7 11 4 6 1022.4 1022.3 0.0
30/10:30pm 17.5 17.3 13.6 78 2.2 NNW 7 13 4 7 1022.8 1022.7 0.0
30/10:00pm 17.5 16.2 13.6 78 2.2 N 13 20 7 11 1022.9 1022.8 0.0
30/09:30pm 17.3 16.6 13.2 77 2.3 NNE 9 15 5 8 1022.8 1022.7 0.0
30/09:00pm 17.3 16.9 13.0 76 2.4 NNW 7 17 4 9 1023.2 1023.1 0.0
30/08:30pm 17.3 16.8 12.8 75 2.5 N 7 13 4 7 1023.2 1023.1 0.0
30/08:00pm 17.5 16.7 13.0 75 2.5 N 9 17 5 9 1022.9 1022.8 0.0
30/07:30pm 17.3 16.0 12.6 74 2.6 N 11 17 6 9 1022.6 1022.5 0.0
30/07:00pm 17.2 15.9 12.5 74 2.6 N 11 15 6 8 1022.7 1022.6 0.0
30/06:30pm 17.3 15.7 12.8 75 2.5 N 13 20 7 11 1023.1 1023.0 0.0
30/06:00pm 17.2 15.5 12.5 74 2.6 N 13 19 7 10 1022.9 1022.8 0.0
30/05:30pm 17.2 15.7 11.9 71 2.9 N 11 19 6 10 1022.8 1022.7 0.0
30/05:00pm 17.2 14.9 11.9 71 2.9 NNE 15 20 8 11 1022.2 1022.1 0.0
30/04:30pm 16.9 14.3 12.0 73 2.7 NNE 17 22 9 12 1021.7 1021.6 0.0
30/04:00pm 17.0 16.2 11.7 71 2.9 N 7 13 4 7 1022.8 1022.7 0.0
30/03:30pm 17.1 15.4 12.6 75 2.5 NE 13 17 7 9 1022.9 1022.8 0.0
30/03:00pm 17.3 15.3 12.8 75 2.5 NE 15 19 8 10 1022.6 1022.5 0.0
30/02:30pm 17.5 16.3 12.8 74 2.6 NNE 11 15 6 8 1023.2 1023.1 0.0
30/02:00pm 17.6 16.2 12.3 71 2.9 NNE 11 15 6 8 1023.4 1023.3 0.0
30/01:30pm 17.8 16.9 12.5 71 2.9 NE 9 13 5 7 1023.3 1023.2 0.0
30/01:00pm 17.2 15.1 12.5 74 2.6 NNE 15 19 8 10 1023.3 1023.2 0.0
30/12:30pm 17.6 16.3 11.2 66 3.5 NNW 9 11 5 6 1024.0 1023.9 0.0
30/12:00pm 17.6 16.6 12.3 71 2.9 NNE 9 13 5 7 1024.3 1024.2 0.0
30/11:30am 17.7 16.3 11.0 65 3.6 N 9 15 5 8 1024.4 1024.3 0.0
30/11:00am 17.3 16.5 11.6 69 3.1 NE 7 11 4 6 1024.8 1024.7 0.0
30/10:30am 16.8 15.6 11.7 72 2.8 E 9 13 5 7 1025.0 1024.9 0.0
30/10:00am 16.7 16.2 12.0 74 2.6 ENE 6 9 3 5 1025.4 1025.3 0.0
30/09:30am 16.6 15.4 11.5 72 2.8 N 9 17 5 9 1025.6 1025.5 0.0
30/09:00am 16.6 16.4 11.7 73 2.6 N 4 11 2 6 1025.6 1025.5 0.0
30/08:30am 16.8 15.8 10.4 66 3.4 NW 6 9 3 5 1025.6 1025.5 0.0
30/08:00am 17.1 15.4 9.8 62 3.8 N 9 15 5 8 1025.0 1024.9 0.0
30/07:30am 17.1 13.8 9.5 61 4.0 NE 17 24 9 13 1024.4 1024.3 0.0
30/07:00am 16.9 14.8 9.6 62 3.8 NE 11 15 6 8 1024.5 1024.4 0.0
30/06:30am 16.7 14.6 9.9 64 3.6 ENE 11 15 6 8 1024.3 1024.2 0.0
30/06:00am 16.6 13.7 9.5 63 3.7 NE 15 19 8 10 1024.1 1024.0 0.0
30/05:30am 16.7 14.1 9.4 62 3.8 NE 13 20 7 11 1023.9 1023.8 0.0
30/05:00am 16.7 13.8 9.6 63 3.7 ENE 15 20 8 11 1023.4 1023.3 0.0
30/04:30am 16.5 14.1 9.9 65 3.5 NE 13 17 7 9 1023.2 1023.1 0.0
30/04:00am 16.2 14.5 9.8 66 3.3 ENE 9 11 5 6 1023.2 1023.1 0.0
30/03:30am 16.0 14.9 10.1 68 3.1 NE 6 9 3 5 1023.6 1023.5 0.0
30/03:00am 16.1 14.4 10.0 67 3.2 ENE 9 13 5 7 1023.6 1023.5 0.0
30/02:30am 16.4 14.3 9.6 64 3.5 ENE 11 17 6 9 1023.7 1023.6 0.0
30/02:00am 16.1 15.3 9.5 65 3.4 SE 4 7 2 4 1024.2 1024.1 0.0
30/01:30am 16.3 13.7 9.5 64 3.5 ENE 13 17 7 9 1023.8 1023.7 0.0
30/01:00am 16.3 14.0 9.0 62 3.7 ENE 11 15 6 8 1024.1 1024.0 0.0
30/12:30am 16.4 13.5 9.6 64 3.5 ENE 15 20 8 11 1024.3 1024.2 0.0
30/12:00am 16.6 13.3 9.5 63 3.7 ENE 17 22 9 12 1024.2 1024.1 0.0
 
Date/Time
EST
Temp
°C
App
Temp
°C
Dew
Point
°C
Rel
Hum
%
Delta-T
°C
Wind Press
QNH
hPa
Press
MSL
hPa
Rain since
9am
mm
Dir  Spd
km/h
Gust
km/h
Spd
kts
Gust
kts
29/11:30pm 16.7 14.4 10.3 66 3.4 ESE 13 20 7 11 1024.3 1024.2 0.0
29/11:00pm 16.4 14.9 10.7 69 3.0 E 9 15 5 8 1024.6 1024.5 0.0
29/10:30pm 16.2 14.2 10.3 68 3.1 ESE 11 17 6 9 1024.6 1024.5 0.0
29/10:00pm 15.8 14.6 9.5 66 3.2 SE 6 9 3 5 1024.6 1024.5 0.0
29/09:30pm 15.4 13.5 9.1 66 3.2 ESE 9 19 5 10 1024.6 1024.5 0.0
29/09:00pm 15.7 13.6 9.6 67 3.1 SE 11 24 6 13 1024.4 1024.3 0.0
29/08:30pm 15.6 13.9 8.4 62 3.6 SE 7 11 4 6 1024.5 1024.4 0.0
29/08:00pm 16.0 13.2 8.5 61 3.8 ESE 13 24 7 13 1024.9 1024.8 0.0
29/07:30pm 16.5 13.1 9.0 61 3.9 E 17 22 9 12 1024.7 1024.6 0.0
29/07:00pm 16.4 13.7 8.9 61 3.8 E 13 24 7 13 1024.7 1024.6 0.0
29/06:30pm 16.4 14.1 8.9 61 3.9 ESE 11 30 6 16 1024.8 1024.7 0.0
29/06:00pm 16.2 13.7 8.2 59 4.0 ESE 11 24 6 13 1024.4 1024.3 0.0
29/05:30pm 16.2 14.5 8.2 59 4.0 ESE 7 15 4 8 1024.5 1024.4 0.0
29/05:00pm 16.2 13.3 8.2 59 4.0 ESE 13 24 7 13 1024.2 1024.1 0.0
29/04:30pm 16.0 13.2 8.5 61 3.8 ESE 13 20 7 11 1023.9 1023.8 0.0
29/04:00pm 16.4 13.9 8.1 58 4.2 ESE 11 17 6 9 1023.8 1023.7 0.0
29/03:30pm 16.9 12.8 7.8 55 4.6 E 19 28 10 15 1023.5 1023.4 0.0
29/03:00pm 16.5 11.5 8.2 58 4.2 E 24 35 13 19 1023.6 1023.5 0.0
29/02:30pm 17.0 13.4 9.7 62 3.8 E 19 32 10 17 1023.5 1023.4 0.0
29/02:00pm 17.1 13.0 8.5 57 4.4 E 20 33 11 18 1023.4 1023.3 0.0
29/01:30pm 17.7 13.6 8.6 55 4.7 E 20 37 11 20 1023.6 1023.5 0.0
29/01:00pm 17.6 13.0 8.2 54 4.8 E 22 39 12 21 1023.8 1023.7 0.0
29/12:30pm 17.5 13.4 8.6 56 4.6 E 20 37 11 20 1023.9 1023.8 0.0
29/12:00pm 17.3 12.8 8.4 56 4.5 E 22 32 12 17 1023.9 1023.8 0.0
29/11:30am 17.5 12.8 7.8 53 4.9 ESE 22 41 12 22 1024.2 1024.1 0.0
29/11:00am 17.6 12.4 7.4 51 5.1 E 24 41 13 22 1024.7 1024.6 0.0
29/10:30am 17.5 13.1 7.5 52 5.0 E 20 37 11 20 1024.9 1024.8 0.0
29/10:02am 17.5 11.6 7.5 52 5.0 E 28 46 15 25 1025.0 1024.9 0.0
29/10:00am 17.3 11.9 7.9 54 4.7 E 26 46 14 25 1024.9 1024.8 0.0
29/09:44am 16.9 12.7 8.1 56 4.5 E 20 46 11 25 1024.9 1024.8 0.0
29/09:30am 16.9 12.9 8.3 57 4.4 E 19 37 10 20 1024.8 1024.7 0.0
29/09:20am 16.7 12.5 8.1 57 4.4 ESE 20 52 11 28 1025.0 1024.9 0.0
29/09:19am 16.8 12.7 8.0 56 4.5 ESE 19 52 10 28 1025.0 1024.9 0.0
29/09:00am 17.1 15.0 8.3 56 4.5 SSW 9 15 5 8 1025.3 1025.2 0.0
29/08:30am 17.0 12.6 7.6 54 4.7 ESE 20 39 11 21 1025.2 1025.1 0.4
29/08:00am 16.5 12.6 8.7 60 4.0 ESE 19 37 10 20 1024.7 1024.6 0.4
29/07:30am 16.7 13.8 6.5 51 5.0 ESE 11 24 6 13 1024.8 1024.7 0.4
29/07:00am 16.2 13.2 7.9 58 4.2 S 13 28 7 15 1024.6 1024.5 0.4
29/06:30am 16.2 14.0 7.9 58 4.2 ESE 9 15 5 8 1024.0 1023.9 0.4
29/06:00am 16.0 13.0 7.7 58 4.1 SE 13 32 7 17 1023.5 1023.4 0.4
29/05:30am 16.1 12.9 8.3 60 3.9 SE 15 39 8 21 1022.6 1022.5 0.4
29/05:00am 16.2 13.7 9.6 65 3.4 E 13 30 7 16 1022.2 1022.1 0.4
29/04:30am 16.2 14.1 8.2 59 4.0 NE 9 19 5 10 1022.2 1022.1 0.4
29/04:00am 15.6 12.7 6.6 55 4.4 E 11 24 6 13 1022.1 1022.0 0.4
29/03:30am 15.8 13.0 7.1 56 4.3 SE 11 20 6 11 1022.2 1022.1 0.4
29/03:00am 16.4 13.0 7.6 56 4.4 SW 15 28 8 15 1022.0 1021.9 0.4
29/02:30am 16.6 13.9 7.5 55 4.5 S 11 26 6 14 1022.3 1022.2 0.4
29/02:00am 16.4 14.3 8.4 59 4.1 SSE 9 22 5 12 1022.0 1021.9 0.4
29/01:30am 16.7 14.0 8.9 60 4.0 SSE 13 24 7 13 1022.0 1021.9 0.4
29/01:15am 16.8 13.4 9.0 60 4.0 ENE 17 44 9 24 1021.8 1021.7 0.4
29/01:00am 16.6 13.8 8.6 59 4.1 WNW 13 37 7 20 1022.2 1022.1 0.4
29/12:30am 16.4 13.7 9.1 62 3.8 E 13 22 7 12 1022.1 1022.0 0.4
29/12:00am 16.9 14.0 9.8 63 3.7 SSE 15 32 8 17 1022.5 1022.4 0.4
 
Date/Time
EST
Temp
°C
App
Temp
°C
Dew
Point
°C
Rel
Hum
%
Delta-T
°C
Wind Press
QNH
hPa
Press
MSL
hPa
Rain since
9am
mm
Dir  Spd
km/h
Gust
km/h
Spd
kts
Gust
kts
28/11:30pm 16.6 14.2 10.2 66 3.4 E 13 37 7 20 1022.5 1022.4 0.4
28/11:00pm 16.3 14.6 11.2 72 2.7 SSE 11 28 6 15 1022.5 1022.4 0.2
28/10:30pm 16.7 13.7 10.5 67 3.3 S 17 35 9 19 1022.5 1022.4 0.2
28/10:00pm 16.5 13.3 11.2 71 2.8 SSW 19 46 10 25 1022.6 1022.5 0.2
28/09:30pm 17.1 14.1 10.7 66 3.4 S 17 32 9 17 1022.4 1022.3 0.0
28/09:00pm 17.0 14.0 10.8 67 3.3 S 17 37 9 20 1022.4 1022.3 0.0
28/08:30pm 17.1 12.5 11.2 68 3.2 SSW 26 59 14 32 1022.0 1021.9 0.0
28/08:00pm 17.2 13.2 10.6 65 3.5 SSW 22 46 12 25 1021.9 1021.8 0.0
28/07:31pm 17.4 12.3 10.5 64 3.7 SSW 28 67 15 36 1021.6 1021.5 0.0
28/07:30pm 17.5 12.9 10.9 65 3.6 SSW 26 67 14 36 1021.6 1021.5 0.0
28/07:01pm 17.1 12.0 10.5 65 3.5 SSW 28 52 15 28 1021.6 1021.5 0.0
28/07:00pm 17.3 12.6 10.7 65 3.5 SW 26 52 14 28 1021.6 1021.5 0.0
28/06:30pm 17.3 11.9 10.9 66 3.4 SSW 30 69 16 37 1021.6 1021.5 0.0
28/06:01pm 17.3 11.5 9.5 60 4.1 SW 30 70 16 38 1021.3 1021.2 0.0
28/06:00pm 17.3 11.5 9.5 60 4.1 SW 30 52 16 28 1021.4 1021.3 0.0
28/05:30pm 17.4 11.5 10.3 63 3.8 SSW 32 72 17 39 1020.9 1020.8 0.0
28/05:00pm 17.1 11.1 10.2 64 3.6 SSW 32 69 17 37 1020.3 1020.2 0.0

Other formats

Comma delimited format used in spreadsheet applications
http://www.bom.gov.au/fwo/IDN60801/IDN60801.94995.axf

JavaScript Object Notation format (JSON) in row-major order
http://www.bom.gov.au/fwo/IDN60801/IDN60801.94995.json

Data quality

Most of these data are generated automatically and are frequently updated. Quality checks on data are not normally performed. It is possible for incorrect values to appear. Refer to information at About Latest Weather Observations and please check the disclaimer before using these data.